sensor_id;sensor_type;location;lat;lon;timestamp;P1;durP1;ratioP1;P2;durP2;ratioP2
35110;SDS011;21290;50.158;8.658;2022-08-30T00:00:39;11.15;;;2.42;;
35110;SDS011;21290;50.158;8.658;2022-08-30T00:03:24;9.68;;;2.92;;
35110;SDS011;21290;50.158;8.658;2022-08-30T00:05:52;11.07;;;2.63;;
35110;SDS011;21290;50.158;8.658;2022-08-30T00:08:21;5.35;;;2.35;;
35110;SDS011;21290;50.158;8.658;2022-08-30T00:10:51;12.35;;;2.65;;
35110;SDS011;21290;50.158;8.658;2022-08-30T00:13:18;4.53;;;2.60;;
35110;SDS011;21290;50.158;8.658;2022-08-30T00:15:46;6.70;;;2.78;;
35110;SDS011;21290;50.158;8.658;2022-08-30T00:18:14;9.27;;;3.00;;
35110;SDS011;21290;50.158;8.658;2022-08-30T00:20:44;5.95;;;3.10;;
35110;SDS011;21290;50.158;8.658;2022-08-30T00:23:13;8.73;;;2.45;;
35110;SDS011;21290;50.158;8.658;2022-08-30T00:25:40;6.05;;;2.42;;
35110;SDS011;21290;50.158;8.658;2022-08-30T00:28:07;10.48;;;2.40;;
35110;SDS011;21290;50.158;8.658;2022-08-30T00:30:35;4.85;;;2.30;;
35110;SDS011;21290;50.158;8.658;2022-08-30T00:33:04;7.72;;;2.70;;
35110;SDS011;21290;50.158;8.658;2022-08-30T00:35:31;12.38;;;3.17;;
35110;SDS011;21290;50.158;8.658;2022-08-30T00:38:02;4.68;;;2.55;;
35110;SDS011;21290;50.158;8.658;2022-08-30T00:40:28;7.40;;;3.00;;
35110;SDS011;21290;50.158;8.658;2022-08-30T00:42:58;4.20;;;2.60;;
35110;SDS011;21290;50.158;8.658;2022-08-30T00:45:34;3.97;;;1.95;;
35110;SDS011;21290;50.158;8.658;2022-08-30T00:48:02;4.78;;;2.35;;
35110;SDS011;21290;50.158;8.658;2022-08-30T00:50:33;9.25;;;2.50;;
35110;SDS011;21290;50.158;8.658;2022-08-30T00:53:06;4.13;;;2.30;;
35110;SDS011;21290;50.158;8.658;2022-08-30T00:55:43;7.22;;;2.50;;
35110;SDS011;21290;50.158;8.658;2022-08-30T00:58:17;3.67;;;2.20;;
35110;SDS011;21290;50.158;8.658;2022-08-30T01:00:49;9.63;;;2.67;;
35110;SDS011;21290;50.158;8.658;2022-08-30T01:03:24;6.35;;;2.65;;
35110;SDS011;21290;50.158;8.658;2022-08-30T01:08:26;4.80;;;2.38;;
35110;SDS011;21290;50.158;8.658;2022-08-30T01:10:54;4.68;;;2.45;;
35110;SDS011;21290;50.158;8.658;2022-08-30T01:13:25;6.97;;;2.60;;
35110;SDS011;21290;50.158;8.658;2022-08-30T01:15:53;3.85;;;2.35;;
35110;SDS011;21290;50.158;8.658;2022-08-30T01:18:21;7.35;;;2.30;;
35110;SDS011;21290;50.158;8.658;2022-08-30T01:20:52;8.13;;;2.75;;
35110;SDS011;21290;50.158;8.658;2022-08-30T01:23:28;6.13;;;2.00;;
35110;SDS011;21290;50.158;8.658;2022-08-30T01:25:57;8.40;;;2.40;;
35110;SDS011;21290;50.158;8.658;2022-08-30T01:28:25;8.52;;;3.63;;
35110;SDS011;21290;50.158;8.658;2022-08-30T01:30:55;8.40;;;2.67;;
35110;SDS011;21290;50.158;8.658;2022-08-30T01:33:24;3.58;;;2.13;;
35110;SDS011;21290;50.158;8.658;2022-08-30T01:38:20;6.47;;;2.17;;
35110;SDS011;21290;50.158;8.658;2022-08-30T01:40:57;8.07;;;2.42;;
35110;SDS011;21290;50.158;8.658;2022-08-30T01:43:29;4.30;;;2.50;;
35110;SDS011;21290;50.158;8.658;2022-08-30T01:45:56;5.47;;;2.42;;
35110;SDS011;21290;50.158;8.658;2022-08-30T01:48:23;8.65;;;2.45;;
35110;SDS011;21290;50.158;8.658;2022-08-30T01:50:56;5.43;;;2.47;;
35110;SDS011;21290;50.158;8.658;2022-08-30T01:55:52;8.40;;;2.63;;
35110;SDS011;21290;50.158;8.658;2022-08-30T01:58:21;13.55;;;2.95;;
35110;SDS011;21290;50.158;8.658;2022-08-30T02:00:51;7.15;;;2.67;;
35110;SDS011;21290;50.158;8.658;2022-08-30T02:03:18;4.53;;;2.58;;
35110;SDS011;21290;50.158;8.658;2022-08-30T02:05:45;4.65;;;2.35;;
35110;SDS011;21290;50.158;8.658;2022-08-30T02:08:11;6.40;;;2.45;;
35110;SDS011;21290;50.158;8.658;2022-08-30T02:10:45;4.38;;;2.30;;
35110;SDS011;21290;50.158;8.658;2022-08-30T02:13:12;4.47;;;2.35;;
35110;SDS011;21290;50.158;8.658;2022-08-30T02:15:42;6.65;;;2.63;;
35110;SDS011;21290;50.158;8.658;2022-08-30T02:18:09;4.63;;;2.47;;
35110;SDS011;21290;50.158;8.658;2022-08-30T02:20:38;6.00;;;2.97;;
35110;SDS011;21290;50.158;8.658;2022-08-30T02:23:08;4.45;;;2.30;;
35110;SDS011;21290;50.158;8.658;2022-08-30T02:25:35;5.25;;;2.28;;
35110;SDS011;21290;50.158;8.658;2022-08-30T02:28:06;12.75;;;2.25;;
35110;SDS011;21290;50.158;8.658;2022-08-30T02:30:33;4.32;;;2.55;;
35110;SDS011;21290;50.158;8.658;2022-08-30T02:33:01;6.35;;;2.38;;
35110;SDS011;21290;50.158;8.658;2022-08-30T02:35:29;6.63;;;2.30;;
35110;SDS011;21290;50.158;8.658;2022-08-30T02:38:06;8.95;;;2.30;;
35110;SDS011;21290;50.158;8.658;2022-08-30T02:40:33;5.28;;;2.28;;
35110;SDS011;21290;50.158;8.658;2022-08-30T02:43:06;5.63;;;2.20;;
35110;SDS011;21290;50.158;8.658;2022-08-30T02:45:33;5.00;;;2.42;;
35110;SDS011;21290;50.158;8.658;2022-08-30T02:48:07;5.65;;;2.53;;
35110;SDS011;21290;50.158;8.658;2022-08-30T02:50:38;8.18;;;2.67;;
35110;SDS011;21290;50.158;8.658;2022-08-30T02:53:06;7.90;;;2.65;;
35110;SDS011;21290;50.158;8.658;2022-08-30T02:55:34;5.07;;;2.72;;
35110;SDS011;21290;50.158;8.658;2022-08-30T02:58:05;5.32;;;2.20;;
35110;SDS011;21290;50.158;8.658;2022-08-30T03:00:39;8.57;;;2.47;;
35110;SDS011;21290;50.158;8.658;2022-08-30T03:03:07;6.32;;;2.65;;
35110;SDS011;21290;50.158;8.658;2022-08-30T03:05:35;4.73;;;2.67;;
35110;SDS011;21290;50.158;8.658;2022-08-30T03:08:05;5.32;;;2.50;;
35110;SDS011;21290;50.158;8.658;2022-08-30T03:10:33;11.15;;;2.13;;
35110;SDS011;21290;50.158;8.658;2022-08-30T03:13:06;7.60;;;2.67;;
35110;SDS011;21290;50.158;8.658;2022-08-30T03:15:35;9.90;;;2.65;;
35110;SDS011;21290;50.158;8.658;2022-08-30T03:18:09;5.47;;;2.63;;
35110;SDS011;21290;50.158;8.658;2022-08-30T03:20:36;6.50;;;2.40;;
35110;SDS011;21290;50.158;8.658;2022-08-30T03:23:09;7.07;;;2.30;;
35110;SDS011;21290;50.158;8.658;2022-08-30T03:25:46;5.18;;;2.65;;
35110;SDS011;21290;50.158;8.658;2022-08-30T03:28:14;9.27;;;2.50;;
35110;SDS011;21290;50.158;8.658;2022-08-30T03:30:42;5.20;;;2.60;;
35110;SDS011;21290;50.158;8.658;2022-08-30T03:33:12;5.85;;;2.55;;
35110;SDS011;21290;50.158;8.658;2022-08-30T03:35:40;12.50;;;2.78;;
35110;SDS011;21290;50.158;8.658;2022-08-30T03:38:07;7.57;;;2.38;;
35110;SDS011;21290;50.158;8.658;2022-08-30T03:40:34;4.68;;;2.78;;
35110;SDS011;21290;50.158;8.658;2022-08-30T03:43:01;4.72;;;2.55;;
35110;SDS011;21290;50.158;8.658;2022-08-30T03:47:58;4.68;;;2.05;;
35110;SDS011;21290;50.158;8.658;2022-08-30T03:50:30;6.45;;;3.00;;
35110;SDS011;21290;50.158;8.658;2022-08-30T03:52:57;9.77;;;2.70;;
35110;SDS011;21290;50.158;8.658;2022-08-30T03:55:28;5.35;;;2.33;;
35110;SDS011;21290;50.158;8.658;2022-08-30T03:57:56;5.90;;;2.40;;
35110;SDS011;21290;50.158;8.658;2022-08-30T04:00:35;7.47;;;2.70;;
35110;SDS011;21290;50.158;8.658;2022-08-30T04:05:32;5.32;;;2.83;;
35110;SDS011;21290;50.158;8.658;2022-08-30T04:08:00;6.53;;;2.83;;
35110;SDS011;21290;50.158;8.658;2022-08-30T04:10:27;8.32;;;2.63;;
35110;SDS011;21290;50.158;8.658;2022-08-30T04:13:01;7.88;;;3.00;;
35110;SDS011;21290;50.158;8.658;2022-08-30T04:15:30;11.82;;;2.78;;
35110;SDS011;21290;50.158;8.658;2022-08-30T04:18:05;8.65;;;2.70;;
35110;SDS011;21290;50.158;8.658;2022-08-30T04:20:33;7.72;;;2.30;;
35110;SDS011;21290;50.158;8.658;2022-08-30T04:23:07;7.25;;;2.83;;
35110;SDS011;21290;50.158;8.658;2022-08-30T04:25:44;5.95;;;2.83;;
35110;SDS011;21290;50.158;8.658;2022-08-30T04:28:14;9.43;;;2.78;;
35110;SDS011;21290;50.158;8.658;2022-08-30T04:30:42;9.57;;;3.47;;
35110;SDS011;21290;50.158;8.658;2022-08-30T04:33:11;6.72;;;3.85;;
35110;SDS011;21290;50.158;8.658;2022-08-30T04:35:40;5.38;;;3.08;;
35110;SDS011;21290;50.158;8.658;2022-08-30T04:38:20;7.00;;;2.70;;
35110;SDS011;21290;50.158;8.658;2022-08-30T04:40:53;7.72;;;3.17;;
35110;SDS011;21290;50.158;8.658;2022-08-30T04:43:20;10.07;;;3.15;;
35110;SDS011;21290;50.158;8.658;2022-08-30T04:45:53;7.72;;;3.10;;
35110;SDS011;21290;50.158;8.658;2022-08-30T04:48:20;3.72;;;2.70;;
35110;SDS011;21290;50.158;8.658;2022-08-30T04:50:51;7.97;;;3.10;;
35110;SDS011;21290;50.158;8.658;2022-08-30T04:53:17;5.47;;;2.95;;
35110;SDS011;21290;50.158;8.658;2022-08-30T04:55:44;6.75;;;3.17;;
35110;SDS011;21290;50.158;8.658;2022-08-30T04:58:14;6.05;;;3.20;;
35110;SDS011;21290;50.158;8.658;2022-08-30T05:00:42;8.98;;;4.15;;
35110;SDS011;21290;50.158;8.658;2022-08-30T05:03:09;10.10;;;3.40;;
35110;SDS011;21290;50.158;8.658;2022-08-30T05:05:37;18.13;;;4.38;;
35110;SDS011;21290;50.158;8.658;2022-08-30T05:08:13;6.22;;;3.05;;
35110;SDS011;21290;50.158;8.658;2022-08-30T05:10:50;14.88;;;3.33;;
35110;SDS011;21290;50.158;8.658;2022-08-30T05:13:19;6.32;;;2.53;;
35110;SDS011;21290;50.158;8.658;2022-08-30T05:16:00;11.45;;;3.85;;
35110;SDS011;21290;50.158;8.658;2022-08-30T05:18:34;17.20;;;3.53;;
35110;SDS011;21290;50.158;8.658;2022-08-30T05:21:06;15.65;;;3.47;;
35110;SDS011;21290;50.158;8.658;2022-08-30T05:23:40;10.07;;;3.60;;
35110;SDS011;21290;50.158;8.658;2022-08-30T05:26:10;8.52;;;3.20;;
35110;SDS011;21290;50.158;8.658;2022-08-30T05:28:42;10.20;;;3.50;;
35110;SDS011;21290;50.158;8.658;2022-08-30T05:31:13;9.27;;;3.47;;
35110;SDS011;21290;50.158;8.658;2022-08-30T05:33:41;17.77;;;4.40;;
35110;SDS011;21290;50.158;8.658;2022-08-30T05:36:08;10.15;;;3.10;;
35110;SDS011;21290;50.158;8.658;2022-08-30T05:38:38;10.07;;;3.22;;
35110;SDS011;21290;50.158;8.658;2022-08-30T05:41:07;6.88;;;2.85;;
35110;SDS011;21290;50.158;8.658;2022-08-30T05:43:36;10.55;;;3.13;;
35110;SDS011;21290;50.158;8.658;2022-08-30T05:46:04;8.32;;;2.90;;
35110;SDS011;21290;50.158;8.658;2022-08-30T05:48:33;12.63;;;3.45;;
35110;SDS011;21290;50.158;8.658;2022-08-30T05:53:40;8.50;;;3.05;;
35110;SDS011;21290;50.158;8.658;2022-08-30T05:56:12;7.82;;;2.90;;
35110;SDS011;21290;50.158;8.658;2022-08-30T05:58:40;10.07;;;3.00;;
35110;SDS011;21290;50.158;8.658;2022-08-30T06:01:17;6.93;;;3.20;;
35110;SDS011;21290;50.158;8.658;2022-08-30T06:03:50;6.45;;;3.17;;
35110;SDS011;21290;50.158;8.658;2022-08-30T06:06:19;8.85;;;3.90;;
35110;SDS011;21290;50.158;8.658;2022-08-30T06:08:50;6.28;;;3.30;;
35110;SDS011;21290;50.158;8.658;2022-08-30T06:11:19;12.32;;;2.72;;
35110;SDS011;21290;50.158;8.658;2022-08-30T06:13:47;10.63;;;3.00;;
35110;SDS011;21290;50.158;8.658;2022-08-30T06:16:19;8.82;;;3.00;;
35110;SDS011;21290;50.158;8.658;2022-08-30T06:18:47;8.52;;;2.90;;
35110;SDS011;21290;50.158;8.658;2022-08-30T06:21:18;10.48;;;3.20;;
35110;SDS011;21290;50.158;8.658;2022-08-30T06:23:46;6.25;;;3.15;;
35110;SDS011;21290;50.158;8.658;2022-08-30T06:26:14;9.88;;;3.05;;
35110;SDS011;21290;50.158;8.658;2022-08-30T06:28:41;8.13;;;3.20;;
35110;SDS011;21290;50.158;8.658;2022-08-30T06:31:11;14.05;;;4.03;;
35110;SDS011;21290;50.158;8.658;2022-08-30T06:33:42;13.73;;;3.67;;
35110;SDS011;21290;50.158;8.658;2022-08-30T06:36:10;5.45;;;2.80;;
35110;SDS011;21290;50.158;8.658;2022-08-30T06:38:40;7.40;;;3.05;;
35110;SDS011;21290;50.158;8.658;2022-08-30T06:41:09;9.05;;;2.97;;
35110;SDS011;21290;50.158;8.658;2022-08-30T06:43:40;6.03;;;3.08;;
35110;SDS011;21290;50.158;8.658;2022-08-30T06:46:16;9.85;;;3.22;;
35110;SDS011;21290;50.158;8.658;2022-08-30T06:48:50;10.82;;;2.90;;
35110;SDS011;21290;50.158;8.658;2022-08-30T06:51:26;8.15;;;2.90;;
35110;SDS011;21290;50.158;8.658;2022-08-30T06:53:56;10.80;;;3.20;;
35110;SDS011;21290;50.158;8.658;2022-08-30T06:56:24;8.50;;;3.03;;
35110;SDS011;21290;50.158;8.658;2022-08-30T06:58:56;10.57;;;3.67;;
35110;SDS011;21290;50.158;8.658;2022-08-30T07:01:24;9.98;;;4.72;;
35110;SDS011;21290;50.158;8.658;2022-08-30T07:03:54;11.18;;;3.00;;
35110;SDS011;21290;50.158;8.658;2022-08-30T07:06:22;11.30;;;2.78;;
35110;SDS011;21290;50.158;8.658;2022-08-30T07:09:00;12.57;;;3.03;;
35110;SDS011;21290;50.158;8.658;2022-08-30T07:11:34;6.97;;;3.00;;
35110;SDS011;21290;50.158;8.658;2022-08-30T07:14:02;9.73;;;4.00;;
35110;SDS011;21290;50.158;8.658;2022-08-30T07:16:30;9.07;;;3.08;;
35110;SDS011;21290;50.158;8.658;2022-08-30T07:18:59;4.80;;;2.78;;
35110;SDS011;21290;50.158;8.658;2022-08-30T07:21:30;10.03;;;3.30;;
35110;SDS011;21290;50.158;8.658;2022-08-30T07:24:11;6.57;;;2.83;;
35110;SDS011;21290;50.158;8.658;2022-08-30T07:26:40;10.23;;;3.13;;
35110;SDS011;21290;50.158;8.658;2022-08-30T07:31:38;7.13;;;3.47;;
35110;SDS011;21290;50.158;8.658;2022-08-30T07:34:05;14.68;;;3.72;;
35110;SDS011;21290;50.158;8.658;2022-08-30T07:36:34;11.90;;;2.95;;
35110;SDS011;21290;50.158;8.658;2022-08-30T07:39:05;8.75;;;2.97;;
35110;SDS011;21290;50.158;8.658;2022-08-30T07:41:35;7.80;;;3.33;;
35110;SDS011;21290;50.158;8.658;2022-08-30T07:44:04;9.43;;;3.05;;
35110;SDS011;21290;50.158;8.658;2022-08-30T07:46:50;6.38;;;2.65;;
35110;SDS011;21290;50.158;8.658;2022-08-30T07:49:17;15.57;;;2.90;;
35110;SDS011;21290;50.158;8.658;2022-08-30T07:51:45;6.10;;;2.40;;
35110;SDS011;21290;50.158;8.658;2022-08-30T07:54:11;7.38;;;2.47;;
35110;SDS011;21290;50.158;8.658;2022-08-30T07:56:39;7.32;;;2.47;;
35110;SDS011;21290;50.158;8.658;2022-08-30T07:59:10;7.03;;;2.40;;
35110;SDS011;21290;50.158;8.658;2022-08-30T08:01:40;6.25;;;2.42;;
35110;SDS011;21290;50.158;8.658;2022-08-30T08:04:06;12.27;;;2.42;;
35110;SDS011;21290;50.158;8.658;2022-08-30T08:06:37;5.88;;;2.22;;
35110;SDS011;21290;50.158;8.658;2022-08-30T08:09:07;9.10;;;2.50;;
35110;SDS011;21290;50.158;8.658;2022-08-30T08:11:34;4.93;;;2.40;;
35110;SDS011;21290;50.158;8.658;2022-08-30T08:14:01;6.50;;;2.45;;
35110;SDS011;21290;50.158;8.658;2022-08-30T08:16:30;9.48;;;3.03;;
35110;SDS011;21290;50.158;8.658;2022-08-30T08:18:58;6.13;;;2.22;;
35110;SDS011;21290;50.158;8.658;2022-08-30T08:21:30;8.55;;;2.38;;
35110;SDS011;21290;50.158;8.658;2022-08-30T08:23:57;7.95;;;3.05;;
35110;SDS011;21290;50.158;8.658;2022-08-30T08:26:25;7.70;;;2.50;;
35110;SDS011;21290;50.158;8.658;2022-08-30T08:28:52;8.30;;;2.28;;
35110;SDS011;21290;50.158;8.658;2022-08-30T08:31:23;13.32;;;2.50;;
35110;SDS011;21290;50.158;8.658;2022-08-30T08:33:59;10.93;;;2.40;;
35110;SDS011;21290;50.158;8.658;2022-08-30T08:36:33;8.80;;;2.42;;
35110;SDS011;21290;50.158;8.658;2022-08-30T08:39:03;8.73;;;2.58;;
35110;SDS011;21290;50.158;8.658;2022-08-30T08:50:06;5.65;;;2.00;;
35110;SDS011;21290;50.158;8.658;2022-08-30T08:56:11;4.30;;;2.07;;
35110;SDS011;21290;50.158;8.658;2022-08-30T09:01:15;9.43;;;2.20;;
35110;SDS011;21290;50.158;8.658;2022-08-30T09:03:49;4.60;;;2.10;;
35110;SDS011;21290;50.158;8.658;2022-08-30T09:06:43;6.53;;;2.30;;
35110;SDS011;21290;50.158;8.658;2022-08-30T09:09:33;6.88;;;2.00;;
35110;SDS011;21290;50.158;8.658;2022-08-30T09:12:04;5.18;;;2.00;;
35110;SDS011;21290;50.158;8.658;2022-08-30T09:14:44;8.73;;;2.55;;
35110;SDS011;21290;50.158;8.658;2022-08-30T09:17:21;6.70;;;2.10;;
35110;SDS011;21290;50.158;8.658;2022-08-30T09:25:39;7.07;;;2.30;;
35110;SDS011;21290;50.158;8.658;2022-08-30T09:28:11;4.65;;;2.28;;
35110;SDS011;21290;50.158;8.658;2022-08-30T09:30:56;3.13;;;1.77;;
35110;SDS011;21290;50.158;8.658;2022-08-30T09:33:37;7.90;;;2.20;;
35110;SDS011;21290;50.158;8.658;2022-08-30T09:36:13;8.93;;;2.20;;
35110;SDS011;21290;50.158;8.658;2022-08-30T09:38:54;5.03;;;1.67;;
35110;SDS011;21290;50.158;8.658;2022-08-30T09:44:18;4.07;;;2.17;;
35110;SDS011;21290;50.158;8.658;2022-08-30T09:46:55;5.53;;;2.47;;
35110;SDS011;21290;50.158;8.658;2022-08-30T09:49:40;3.75;;;2.42;;
35110;SDS011;21290;50.158;8.658;2022-08-30T09:58:24;8.32;;;1.85;;
35110;SDS011;21290;50.158;8.658;2022-08-30T10:06:33;6.10;;;1.92;;
35110;SDS011;21290;50.158;8.658;2022-08-30T10:09:14;5.97;;;1.58;;
35110;SDS011;21290;50.158;8.658;2022-08-30T10:14:38;12.07;;;1.75;;
35110;SDS011;21290;50.158;8.658;2022-08-30T10:25:36;6.32;;;1.77;;
35110;SDS011;21290;50.158;8.658;2022-08-30T10:28:10;3.65;;;1.70;;
35110;SDS011;21290;50.158;8.658;2022-08-30T10:30:43;4.80;;;1.75;;
35110;SDS011;21290;50.158;8.658;2022-08-30T10:33:27;7.57;;;1.73;;
35110;SDS011;21290;50.158;8.658;2022-08-30T10:36:19;7.75;;;1.67;;
35110;SDS011;21290;50.158;8.658;2022-08-30T10:38:54;3.25;;;1.50;;
35110;SDS011;21290;50.158;8.658;2022-08-30T10:41:24;9.18;;;1.95;;
35110;SDS011;21290;50.158;8.658;2022-08-30T10:49:48;2.75;;;1.50;;
35110;SDS011;21290;50.158;8.658;2022-08-30T10:52:28;11.57;;;1.77;;
35110;SDS011;21290;50.158;8.658;2022-08-30T10:55:23;9.98;;;1.90;;
35110;SDS011;21290;50.158;8.658;2022-08-30T10:57:57;7.55;;;1.77;;
35110;SDS011;21290;50.158;8.658;2022-08-30T11:00:36;5.32;;;1.40;;
35110;SDS011;21290;50.158;8.658;2022-08-30T11:03:22;7.72;;;1.50;;
35110;SDS011;21290;50.158;8.658;2022-08-30T11:06:13;12.38;;;1.83;;
35110;SDS011;21290;50.158;8.658;2022-08-30T11:13:56;5.38;;;1.50;;
35110;SDS011;21290;50.158;8.658;2022-08-30T11:16:47;6.28;;;1.33;;
35110;SDS011;21290;50.158;8.658;2022-08-30T11:19:20;9.40;;;1.33;;
35110;SDS011;21290;50.158;8.658;2022-08-30T11:22:14;4.25;;;1.70;;
35110;SDS011;21290;50.158;8.658;2022-08-30T11:24:57;2.13;;;1.35;;
35110;SDS011;21290;50.158;8.658;2022-08-30T11:27:42;5.22;;;1.95;;
35110;SDS011;21290;50.158;8.658;2022-08-30T11:35:43;5.10;;;1.45;;
35110;SDS011;21290;50.158;8.658;2022-08-30T11:40:52;5.63;;;1.55;;
35110;SDS011;21290;50.158;8.658;2022-08-30T11:48:54;4.72;;;1.48;;
35110;SDS011;21290;50.158;8.658;2022-08-30T12:00:29;3.88;;;1.80;;
35110;SDS011;21290;50.158;8.658;2022-08-30T12:16:18;5.82;;;1.98;;
35110;SDS011;21290;50.158;8.658;2022-08-30T12:19:26;3.90;;;2.00;;
35110;SDS011;21290;50.158;8.658;2022-08-30T12:21:56;2.67;;;1.67;;
35110;SDS011;21290;50.158;8.658;2022-08-30T12:24:33;2.97;;;2.00;;
35110;SDS011;21290;50.158;8.658;2022-08-30T12:30:00;3.28;;;2.30;;
35110;SDS011;21290;50.158;8.658;2022-08-30T12:32:42;5.80;;;1.95;;
35110;SDS011;21290;50.158;8.658;2022-08-30T12:35:19;11.25;;;2.20;;
35110;SDS011;21290;50.158;8.658;2022-08-30T12:37:57;9.55;;;2.10;;
35110;SDS011;21290;50.158;8.658;2022-08-30T12:40:31;5.95;;;2.15;;
35110;SDS011;21290;50.158;8.658;2022-08-30T12:43:23;4.13;;;2.20;;
35110;SDS011;21290;50.158;8.658;2022-08-30T12:46:06;4.82;;;2.75;;
35110;SDS011;21290;50.158;8.658;2022-08-30T12:48:52;7.72;;;2.00;;
35110;SDS011;21290;50.158;8.658;2022-08-30T12:51:49;5.30;;;2.20;;
35110;SDS011;21290;50.158;8.658;2022-08-30T12:54:30;5.68;;;2.35;;
35110;SDS011;21290;50.158;8.658;2022-08-30T12:57:08;7.70;;;2.30;;
35110;SDS011;21290;50.158;8.658;2022-08-30T13:00:00;9.23;;;2.30;;
35110;SDS011;21290;50.158;8.658;2022-08-30T13:02:45;6.30;;;2.10;;
35110;SDS011;21290;50.158;8.658;2022-08-30T13:10:52;4.18;;;2.20;;
35110;SDS011;21290;50.158;8.658;2022-08-30T13:13:55;8.68;;;2.30;;
35110;SDS011;21290;50.158;8.658;2022-08-30T13:16:45;3.97;;;2.47;;
35110;SDS011;21290;50.158;8.658;2022-08-30T13:21:53;9.85;;;2.53;;
35110;SDS011;21290;50.158;8.658;2022-08-30T13:24:27;3.13;;;1.77;;
35110;SDS011;21290;50.158;8.658;2022-08-30T13:26:55;5.55;;;2.38;;
35110;SDS011;21290;50.158;8.658;2022-08-30T13:29:30;4.28;;;2.17;;
35110;SDS011;21290;50.158;8.658;2022-08-30T13:31:57;10.10;;;2.25;;
35110;SDS011;21290;50.158;8.658;2022-08-30T13:34:25;5.03;;;2.17;;
35110;SDS011;21290;50.158;8.658;2022-08-30T13:36:57;6.20;;;2.80;;
35110;SDS011;21290;50.158;8.658;2022-08-30T13:39:27;2.90;;;2.17;;
35110;SDS011;21290;50.158;8.658;2022-08-30T13:41:54;7.32;;;2.63;;
35110;SDS011;21290;50.158;8.658;2022-08-30T13:44:41;3.60;;;2.00;;
35110;SDS011;21290;50.158;8.658;2022-08-30T13:47:20;2.47;;;2.20;;
35110;SDS011;21290;50.158;8.658;2022-08-30T13:49:58;5.75;;;2.30;;
35110;SDS011;21290;50.158;8.658;2022-08-30T13:52:27;3.85;;;2.20;;
35110;SDS011;21290;50.158;8.658;2022-08-30T13:54:55;3.67;;;2.15;;
35110;SDS011;21290;50.158;8.658;2022-08-30T13:57:24;4.90;;;2.33;;
35110;SDS011;21290;50.158;8.658;2022-08-30T14:00:15;5.65;;;2.03;;
35110;SDS011;21290;50.158;8.658;2022-08-30T14:02:45;6.57;;;2.58;;
35110;SDS011;21290;50.158;8.658;2022-08-30T14:05:24;4.85;;;2.33;;
35110;SDS011;21290;50.158;8.658;2022-08-30T14:08:15;6.32;;;2.60;;
35110;SDS011;21290;50.158;8.658;2022-08-30T14:11:04;4.80;;;2.58;;
35110;SDS011;21290;50.158;8.658;2022-08-30T14:13:31;6.28;;;2.38;;
35110;SDS011;21290;50.158;8.658;2022-08-30T14:15:58;6.32;;;2.13;;
35110;SDS011;21290;50.158;8.658;2022-08-30T14:18:46;5.05;;;2.30;;
35110;SDS011;21290;50.158;8.658;2022-08-30T14:21:14;3.50;;;2.20;;
35110;SDS011;21290;50.158;8.658;2022-08-30T14:23:41;4.00;;;1.80;;
35110;SDS011;21290;50.158;8.658;2022-08-30T14:26:09;4.85;;;2.50;;
35110;SDS011;21290;50.158;8.658;2022-08-30T14:28:42;8.02;;;2.30;;
35110;SDS011;21290;50.158;8.658;2022-08-30T14:31:10;4.22;;;2.22;;
35110;SDS011;21290;50.158;8.658;2022-08-30T14:33:36;3.35;;;1.92;;
35110;SDS011;21290;50.158;8.658;2022-08-30T14:36:03;8.13;;;2.22;;
35110;SDS011;21290;50.158;8.658;2022-08-30T14:38:37;5.00;;;2.05;;
35110;SDS011;21290;50.158;8.658;2022-08-30T14:41:07;9.35;;;2.30;;
35110;SDS011;21290;50.158;8.658;2022-08-30T14:43:35;7.40;;;2.13;;
35110;SDS011;21290;50.158;8.658;2022-08-30T14:46:03;3.92;;;2.30;;
35110;SDS011;21290;50.158;8.658;2022-08-30T14:48:30;7.25;;;2.15;;
35110;SDS011;21290;50.158;8.658;2022-08-30T14:50:57;4.45;;;2.30;;
35110;SDS011;21290;50.158;8.658;2022-08-30T14:53:24;5.22;;;2.15;;
35110;SDS011;21290;50.158;8.658;2022-08-30T14:55:50;3.38;;;2.30;;
35110;SDS011;21290;50.158;8.658;2022-08-30T14:58:17;3.00;;;2.28;;
35110;SDS011;21290;50.158;8.658;2022-08-30T15:00:50;6.35;;;2.60;;
35110;SDS011;21290;50.158;8.658;2022-08-30T15:03:17;3.75;;;2.10;;
35110;SDS011;21290;50.158;8.658;2022-08-30T15:05:48;3.65;;;2.17;;
35110;SDS011;21290;50.158;8.658;2022-08-30T15:08:18;5.35;;;2.40;;
35110;SDS011;21290;50.158;8.658;2022-08-30T15:10:45;3.90;;;2.20;;
35110;SDS011;21290;50.158;8.658;2022-08-30T15:13:12;9.40;;;2.25;;
35110;SDS011;21290;50.158;8.658;2022-08-30T15:15:40;2.55;;;1.88;;
35110;SDS011;21290;50.158;8.658;2022-08-30T15:18:07;4.43;;;2.05;;
35110;SDS011;21290;50.158;8.658;2022-08-30T15:20:34;4.22;;;2.15;;
35110;SDS011;21290;50.158;8.658;2022-08-30T15:23:01;3.38;;;2.22;;
35110;SDS011;21290;50.158;8.658;2022-08-30T15:25:30;5.57;;;2.20;;
35110;SDS011;21290;50.158;8.658;2022-08-30T15:27:56;8.10;;;2.80;;
35110;SDS011;21290;50.158;8.658;2022-08-30T15:30:23;2.90;;;2.10;;
35110;SDS011;21290;50.158;8.658;2022-08-30T15:32:50;2.67;;;2.13;;
35110;SDS011;21290;50.158;8.658;2022-08-30T15:35:17;2.20;;;1.92;;
35110;SDS011;21290;50.158;8.658;2022-08-30T15:37:44;5.97;;;2.00;;
35110;SDS011;21290;50.158;8.658;2022-08-30T15:40:11;5.57;;;2.38;;
35110;SDS011;21290;50.158;8.658;2022-08-30T15:42:38;4.47;;;2.50;;
35110;SDS011;21290;50.158;8.658;2022-08-30T15:45:04;4.00;;;2.38;;
35110;SDS011;21290;50.158;8.658;2022-08-30T15:47:32;9.07;;;2.30;;
35110;SDS011;21290;50.158;8.658;2022-08-30T15:50:00;3.30;;;2.20;;
35110;SDS011;21290;50.158;8.658;2022-08-30T15:52:30;5.82;;;2.50;;
35110;SDS011;21290;50.158;8.658;2022-08-30T15:54:56;7.95;;;2.45;;
35110;SDS011;21290;50.158;8.658;2022-08-30T15:57:24;3.80;;;2.40;;
35110;SDS011;21290;50.158;8.658;2022-08-30T15:59:52;4.63;;;2.60;;
35110;SDS011;21290;50.158;8.658;2022-08-30T16:02:21;3.58;;;2.20;;
35110;SDS011;21290;50.158;8.658;2022-08-30T16:04:53;4.75;;;2.20;;
35110;SDS011;21290;50.158;8.658;2022-08-30T16:07:19;5.20;;;2.17;;
35110;SDS011;21290;50.158;8.658;2022-08-30T16:09:46;9.25;;;2.45;;
35110;SDS011;21290;50.158;8.658;2022-08-30T16:12:12;7.68;;;2.75;;
35110;SDS011;21290;50.158;8.658;2022-08-30T16:14:49;8.52;;;2.55;;
35110;SDS011;21290;50.158;8.658;2022-08-30T16:17:15;4.45;;;2.30;;
35110;SDS011;21290;50.158;8.658;2022-08-30T16:19:43;4.55;;;2.33;;
35110;SDS011;21290;50.158;8.658;2022-08-30T16:22:10;6.15;;;2.20;;
35110;SDS011;21290;50.158;8.658;2022-08-30T16:24:36;2.85;;;2.05;;
35110;SDS011;21290;50.158;8.658;2022-08-30T16:27:04;5.10;;;2.80;;
35110;SDS011;21290;50.158;8.658;2022-08-30T16:29:33;4.97;;;2.55;;
35110;SDS011;21290;50.158;8.658;2022-08-30T16:32:00;7.25;;;2.47;;
35110;SDS011;21290;50.158;8.658;2022-08-30T16:34:27;5.50;;;3.10;;
35110;SDS011;21290;50.158;8.658;2022-08-30T16:36:53;6.10;;;2.60;;
35110;SDS011;21290;50.158;8.658;2022-08-30T16:39:20;3.92;;;2.72;;
35110;SDS011;21290;50.158;8.658;2022-08-30T16:41:47;4.68;;;2.88;;
35110;SDS011;21290;50.158;8.658;2022-08-30T16:44:14;4.63;;;2.45;;
35110;SDS011;21290;50.158;8.658;2022-08-30T16:46:43;7.32;;;2.42;;
35110;SDS011;21290;50.158;8.658;2022-08-30T16:49:18;10.20;;;3.00;;
35110;SDS011;21290;50.158;8.658;2022-08-30T16:51:48;4.70;;;2.50;;
35110;SDS011;21290;50.158;8.658;2022-08-30T16:54:15;6.93;;;2.90;;
35110;SDS011;21290;50.158;8.658;2022-08-30T16:56:42;5.47;;;2.60;;
35110;SDS011;21290;50.158;8.658;2022-08-30T16:59:10;6.35;;;2.47;;
35110;SDS011;21290;50.158;8.658;2022-08-30T17:01:38;3.70;;;2.20;;
35110;SDS011;21290;50.158;8.658;2022-08-30T17:04:07;6.07;;;2.20;;
35110;SDS011;21290;50.158;8.658;2022-08-30T17:06:35;8.75;;;2.70;;
35110;SDS011;21290;50.158;8.658;2022-08-30T17:09:02;14.00;;;2.50;;
35110;SDS011;21290;50.158;8.658;2022-08-30T17:11:31;7.20;;;2.53;;
35110;SDS011;21290;50.158;8.658;2022-08-30T17:13:58;4.57;;;2.55;;